sensor_id;sensor_type;location;lat;lon;timestamp;pressure;altitude;pressure_sealevel;temperature;humidity
56582;BME280;42463;52.214;21.238;2023-01-25T00:00:14;102464.30;;;3.82;70.44
56582;BME280;42463;52.214;21.238;2023-01-25T00:02:59;102470.90;;;3.80;70.93
56582;BME280;42463;52.214;21.238;2023-01-25T00:05:25;102476.02;;;3.83;71.22
56582;BME280;42463;52.214;21.238;2023-01-25T00:07:50;102474.99;;;3.86;71.25
56582;BME280;42463;52.214;21.238;2023-01-25T00:10:15;102467.77;;;3.86;70.99
56582;BME280;42463;52.214;21.238;2023-01-25T00:12:40;102473.55;;;3.86;70.78
56582;BME280;42463;52.214;21.238;2023-01-25T00:15:07;102475.70;;;3.86;70.91
56582;BME280;42463;52.214;21.238;2023-01-25T00:17:32;102476.92;;;3.88;70.69
56582;BME280;42463;52.214;21.238;2023-01-25T00:19:57;102469.11;;;3.86;70.05
56582;BME280;42463;52.214;21.238;2023-01-25T00:22:23;102464.80;;;3.77;69.79
56582;BME280;42463;52.214;21.238;2023-01-25T00:24:48;102458.98;;;3.68;70.09
56582;BME280;42463;52.214;21.238;2023-01-25T00:27:13;102456.41;;;3.58;69.87
56582;BME280;42463;52.214;21.238;2023-01-25T00:29:39;102456.77;;;3.51;70.43
56582;BME280;42463;52.214;21.238;2023-01-25T00:32:31;102453.08;;;3.50;70.59
56582;BME280;42463;52.214;21.238;2023-01-25T00:34:57;102454.24;;;3.53;70.54
56582;BME280;42463;52.214;21.238;2023-01-25T00:37:37;102452.64;;;3.55;70.95
56582;BME280;42463;52.214;21.238;2023-01-25T00:40:13;102455.45;;;3.59;70.44
56582;BME280;42463;52.214;21.238;2023-01-25T00:42:44;102450.73;;;3.56;70.31
56582;BME280;42463;52.214;21.238;2023-01-25T00:45:14;102452.41;;;3.61;70.66
56582;BME280;42463;52.214;21.238;2023-01-25T00:47:39;102448.48;;;3.66;70.37
56582;BME280;42463;52.214;21.238;2023-01-25T00:50:09;102442.81;;;3.68;70.15
56582;BME280;42463;52.214;21.238;2023-01-25T00:52:39;102436.77;;;3.70;70.32
56582;BME280;42463;52.214;21.238;2023-01-25T00:55:08;102433.00;;;3.72;70.20
56582;BME280;42463;52.214;21.238;2023-01-25T00:57:36;102429.75;;;3.72;70.03
56582;BME280;42463;52.214;21.238;2023-01-25T01:00:01;102428.98;;;3.74;69.87
56582;BME280;42463;52.214;21.238;2023-01-25T01:02:30;102427.64;;;3.66;69.00
56582;BME280;42463;52.214;21.238;2023-01-25T01:04:56;102427.24;;;3.55;69.16
56582;BME280;42463;52.214;21.238;2023-01-25T01:07:28;102427.52;;;3.52;69.69
56582;BME280;42463;52.214;21.238;2023-01-25T01:09:53;102424.10;;;3.56;69.78
56582;BME280;42463;52.214;21.238;2023-01-25T01:12:21;102429.23;;;3.57;69.35
56582;BME280;42463;52.214;21.238;2023-01-25T01:14:49;102427.07;;;3.59;69.42
56582;BME280;42463;52.214;21.238;2023-01-25T01:17:16;102426.15;;;3.62;69.57
56582;BME280;42463;52.214;21.238;2023-01-25T01:19:43;102431.93;;;3.65;68.90
56582;BME280;42463;52.214;21.238;2023-01-25T01:22:08;102429.67;;;3.64;68.66
56582;BME280;42463;52.214;21.238;2023-01-25T01:24:33;102427.77;;;3.65;68.72
56582;BME280;42463;52.214;21.238;2023-01-25T01:27:00;102428.88;;;3.67;68.73
56582;BME280;42463;52.214;21.238;2023-01-25T01:29:25;102429.60;;;3.68;68.72
56582;BME280;42463;52.214;21.238;2023-01-25T01:31:52;102425.97;;;3.72;69.17
56582;BME280;42463;52.214;21.238;2023-01-25T01:34:19;102425.44;;;3.76;68.68
56582;BME280;42463;52.214;21.238;2023-01-25T01:36:44;102424.54;;;3.76;68.69
56582;BME280;42463;52.214;21.238;2023-01-25T01:39:09;102420.00;;;3.75;68.16
56582;BME280;42463;52.214;21.238;2023-01-25T01:41:35;102420.87;;;3.73;68.29
56582;BME280;42463;52.214;21.238;2023-01-25T01:44:01;102416.40;;;3.71;68.17
56582;BME280;42463;52.214;21.238;2023-01-25T01:46:29;102416.11;;;3.67;67.89
56582;BME280;42463;52.214;21.238;2023-01-25T01:49:04;102416.10;;;3.66;67.93
56582;BME280;42463;52.214;21.238;2023-01-25T01:51:46;102412.60;;;3.56;67.34
56582;BME280;42463;52.214;21.238;2023-01-25T01:54:22;102411.89;;;3.51;67.74
56582;BME280;42463;52.214;21.238;2023-01-25T01:56:53;102412.92;;;3.50;67.77
56582;BME280;42463;52.214;21.238;2023-01-25T01:59:26;102408.80;;;3.50;67.58
56582;BME280;42463;52.214;21.238;2023-01-25T02:01:54;102408.13;;;3.49;67.57
56582;BME280;42463;52.214;21.238;2023-01-25T02:04:23;102404.72;;;3.44;67.52
56582;BME280;42463;52.214;21.238;2023-01-25T02:07:01;102403.10;;;3.44;67.41
56582;BME280;42463;52.214;21.238;2023-01-25T02:09:30;102400.83;;;3.45;67.51
56582;BME280;42463;52.214;21.238;2023-01-25T02:11:57;102395.09;;;3.44;67.42
56582;BME280;42463;52.214;21.238;2023-01-25T02:14:23;102394.79;;;3.43;67.57
56582;BME280;42463;52.214;21.238;2023-01-25T02:16:50;102391.26;;;3.43;67.54
56582;BME280;42463;52.214;21.238;2023-01-25T02:19:19;102391.48;;;3.43;67.21
56582;BME280;42463;52.214;21.238;2023-01-25T02:21:46;102386.88;;;3.39;67.04
56582;BME280;42463;52.214;21.238;2023-01-25T02:24:18;102387.66;;;3.36;67.40
56582;BME280;42463;52.214;21.238;2023-01-25T02:26:44;102383.84;;;3.36;67.02
56582;BME280;42463;52.214;21.238;2023-01-25T02:29:11;102382.23;;;3.25;66.55
56582;BME280;42463;52.214;21.238;2023-01-25T02:31:37;102378.10;;;3.18;66.78
56582;BME280;42463;52.214;21.238;2023-01-25T02:34:02;102379.68;;;3.18;67.31
56582;BME280;42463;52.214;21.238;2023-01-25T02:36:29;102380.33;;;3.21;67.39
56582;BME280;42463;52.214;21.238;2023-01-25T02:38:58;102380.05;;;3.27;67.72
56582;BME280;42463;52.214;21.238;2023-01-25T02:41:29;102378.35;;;3.31;67.50
56582;BME280;42463;52.214;21.238;2023-01-25T02:43:55;102379.41;;;3.35;67.23
56582;BME280;42463;52.214;21.238;2023-01-25T02:46:23;102375.60;;;3.39;67.27
56582;BME280;42463;52.214;21.238;2023-01-25T02:48:51;102380.15;;;3.42;67.10
56582;BME280;42463;52.214;21.238;2023-01-25T02:51:19;102371.03;;;3.42;66.82
56582;BME280;42463;52.214;21.238;2023-01-25T02:53:45;102368.39;;;3.38;66.28
56582;BME280;42463;52.214;21.238;2023-01-25T02:56:09;102368.67;;;3.28;66.30
56582;BME280;42463;52.214;21.238;2023-01-25T02:58:35;102369.30;;;3.26;66.57
56582;BME280;42463;52.214;21.238;2023-01-25T03:00:59;102369.49;;;3.26;66.86
56582;BME280;42463;52.214;21.238;2023-01-25T03:03:25;102371.66;;;3.29;67.06
56582;BME280;42463;52.214;21.238;2023-01-25T03:05:50;102364.98;;;3.31;66.74
56582;BME280;42463;52.214;21.238;2023-01-25T03:08:15;102361.34;;;3.30;66.39
56582;BME280;42463;52.214;21.238;2023-01-25T03:10:43;102355.80;;;3.28;66.25
56582;BME280;42463;52.214;21.238;2023-01-25T03:13:08;102354.45;;;3.28;66.01
56582;BME280;42463;52.214;21.238;2023-01-25T03:15:34;102339.54;;;3.21;65.70
56582;BME280;42463;52.214;21.238;2023-01-25T03:17:59;102336.23;;;3.11;65.34
56582;BME280;42463;52.214;21.238;2023-01-25T03:20:28;102333.46;;;2.99;65.20
56582;BME280;42463;52.214;21.238;2023-01-25T03:22:55;102335.95;;;2.94;65.87
56582;BME280;42463;52.214;21.238;2023-01-25T03:25:20;102329.10;;;2.93;66.18
56582;BME280;42463;52.214;21.238;2023-01-25T03:27:55;102327.04;;;2.90;65.78
56582;BME280;42463;52.214;21.238;2023-01-25T03:30:24;102326.84;;;2.81;65.73
56582;BME280;42463;52.214;21.238;2023-01-25T03:32:54;102315.27;;;2.75;65.67
56582;BME280;42463;52.214;21.238;2023-01-25T03:35:24;102310.27;;;2.67;65.93
56582;BME280;42463;52.214;21.238;2023-01-25T03:37:49;102319.71;;;2.64;66.06
56582;BME280;42463;52.214;21.238;2023-01-25T03:40:15;102314.40;;;2.70;66.45
56582;BME280;42463;52.214;21.238;2023-01-25T03:42:43;102284.79;;;2.56;66.17
56582;BME280;42463;52.214;21.238;2023-01-25T03:45:09;102301.31;;;2.71;66.03
56582;BME280;42463;52.214;21.238;2023-01-25T03:47:37;102320.73;;;2.71;66.16
56582;BME280;42463;52.214;21.238;2023-01-25T03:50:02;102325.23;;;2.76;66.65
56582;BME280;42463;52.214;21.238;2023-01-25T03:55:33;102329.88;;;2.88;66.37
56582;BME280;42463;52.214;21.238;2023-01-25T03:57:58;102330.81;;;2.83;66.04
56582;BME280;42463;52.214;21.238;2023-01-25T04:00:23;102321.31;;;2.84;66.00
56582;BME280;42463;52.214;21.238;2023-01-25T04:02:52;102315.08;;;2.79;65.58
56582;BME280;42463;52.214;21.238;2023-01-25T04:05:17;102310.83;;;2.75;65.84
56582;BME280;42463;52.214;21.238;2023-01-25T04:07:43;102307.67;;;2.75;65.82
56582;BME280;42463;52.214;21.238;2023-01-25T04:10:12;102306.24;;;2.76;65.91
56582;BME280;42463;52.214;21.238;2023-01-25T04:12:40;102298.84;;;2.81;66.13
56582;BME280;42463;52.214;21.238;2023-01-25T04:15:08;102295.27;;;2.83;65.60
56582;BME280;42463;52.214;21.238;2023-01-25T04:17:36;102296.87;;;2.82;65.50
56582;BME280;42463;52.214;21.238;2023-01-25T04:20:20;102295.83;;;2.82;65.27
56582;BME280;42463;52.214;21.238;2023-01-25T04:22:47;102306.19;;;2.84;65.47
56582;BME280;42463;52.214;21.238;2023-01-25T04:25:12;102305.34;;;2.85;65.35
56582;BME280;42463;52.214;21.238;2023-01-25T04:27:41;102278.11;;;2.63;64.86
56582;BME280;42463;52.214;21.238;2023-01-25T04:30:12;102304.28;;;2.70;65.33
56582;BME280;42463;52.214;21.238;2023-01-25T04:32:38;102302.11;;;2.70;65.51
56582;BME280;42463;52.214;21.238;2023-01-25T04:35:15;102299.45;;;2.65;64.78
56582;BME280;42463;52.214;21.238;2023-01-25T04:37:40;102294.02;;;2.63;64.86
56582;BME280;42463;52.214;21.238;2023-01-25T04:40:09;102291.77;;;2.58;64.77
56582;BME280;42463;52.214;21.238;2023-01-25T04:42:39;102287.93;;;2.55;64.40
56582;BME280;42463;52.214;21.238;2023-01-25T04:45:04;102288.39;;;2.48;64.60
56582;BME280;42463;52.214;21.238;2023-01-25T04:47:29;102291.55;;;2.42;64.97
56582;BME280;42463;52.214;21.238;2023-01-25T04:49:54;102287.48;;;2.35;64.32
56582;BME280;42463;52.214;21.238;2023-01-25T04:52:20;102282.59;;;2.27;64.49
56582;BME280;42463;52.214;21.238;2023-01-25T04:54:45;102283.27;;;2.22;64.42
56582;BME280;42463;52.214;21.238;2023-01-25T04:57:11;102280.89;;;2.17;64.67
56582;BME280;42463;52.214;21.238;2023-01-25T04:59:37;102277.31;;;2.14;64.52
56582;BME280;42463;52.214;21.238;2023-01-25T05:02:02;102272.66;;;2.08;64.86
56582;BME280;42463;52.214;21.238;2023-01-25T05:04:28;102278.82;;;2.07;64.75
56582;BME280;42463;52.214;21.238;2023-01-25T05:06:53;102276.02;;;2.10;65.85
56582;BME280;42463;52.214;21.238;2023-01-25T05:09:18;102272.77;;;2.14;65.13
56582;BME280;42463;52.214;21.238;2023-01-25T05:11:43;102279.84;;;2.15;65.25
56582;BME280;42463;52.214;21.238;2023-01-25T05:14:34;102275.43;;;2.20;65.40
56582;BME280;42463;52.214;21.238;2023-01-25T05:17:01;102276.05;;;2.26;65.77
56582;BME280;42463;52.214;21.238;2023-01-25T05:19:28;102269.02;;;2.29;64.96
56582;BME280;42463;52.214;21.238;2023-01-25T05:22:03;102269.77;;;2.28;64.98
56582;BME280;42463;52.214;21.238;2023-01-25T05:24:50;102274.11;;;2.29;64.68
56582;BME280;42463;52.214;21.238;2023-01-25T05:27:19;102261.35;;;2.21;64.48
56582;BME280;42463;52.214;21.238;2023-01-25T05:29:53;102266.96;;;2.15;64.41
56582;BME280;42463;52.214;21.238;2023-01-25T05:32:41;102268.11;;;2.13;65.04
56582;BME280;42463;52.214;21.238;2023-01-25T05:35:33;102263.20;;;2.14;64.63
56582;BME280;42463;52.214;21.238;2023-01-25T05:38:10;102273.40;;;2.10;64.59
56582;BME280;42463;52.214;21.238;2023-01-25T05:40:35;102266.52;;;2.05;64.56
56582;BME280;42463;52.214;21.238;2023-01-25T05:43:04;102266.14;;;1.96;64.66
56582;BME280;42463;52.214;21.238;2023-01-25T05:45:30;102271.52;;;1.89;65.32
56582;BME280;42463;52.214;21.238;2023-01-25T05:47:56;102274.93;;;1.94;65.35
56582;BME280;42463;52.214;21.238;2023-01-25T05:50:22;102273.30;;;2.05;65.79
56582;BME280;42463;52.214;21.238;2023-01-25T05:53:05;102271.95;;;2.17;65.73
56582;BME280;42463;52.214;21.238;2023-01-25T05:55:30;102267.95;;;2.27;65.84
56582;BME280;42463;52.214;21.238;2023-01-25T05:57:59;102267.48;;;2.35;65.76
56582;BME280;42463;52.214;21.238;2023-01-25T06:00:25;102260.84;;;2.41;65.56
56582;BME280;42463;52.214;21.238;2023-01-25T06:02:50;102260.60;;;2.44;65.40
56582;BME280;42463;52.214;21.238;2023-01-25T06:05:20;102257.10;;;2.47;65.32
56582;BME280;42463;52.214;21.238;2023-01-25T06:07:46;102248.85;;;2.49;65.10
56582;BME280;42463;52.214;21.238;2023-01-25T06:10:13;102248.39;;;2.47;64.72
56582;BME280;42463;52.214;21.238;2023-01-25T06:12:41;102223.06;;;2.34;64.76
56582;BME280;42463;52.214;21.238;2023-01-25T06:15:11;102243.24;;;2.43;64.42
56582;BME280;42463;52.214;21.238;2023-01-25T06:17:37;102244.89;;;2.36;64.47
56582;BME280;42463;52.214;21.238;2023-01-25T06:20:25;102251.05;;;2.26;64.42
56582;BME280;42463;52.214;21.238;2023-01-25T06:23:01;102253.03;;;2.28;65.13
56582;BME280;42463;52.214;21.238;2023-01-25T06:25:29;102255.69;;;2.33;64.91
56582;BME280;42463;52.214;21.238;2023-01-25T06:28:01;102256.52;;;2.36;64.85
56582;BME280;42463;52.214;21.238;2023-01-25T06:30:31;102261.04;;;2.37;64.79
56582;BME280;42463;52.214;21.238;2023-01-25T06:32:59;102259.05;;;2.39;64.64
56582;BME280;42463;52.214;21.238;2023-01-25T06:35:25;102259.00;;;2.43;64.97
56582;BME280;42463;52.214;21.238;2023-01-25T06:37:55;102255.79;;;2.46;65.03
56582;BME280;42463;52.214;21.238;2023-01-25T06:40:20;102256.16;;;2.46;64.39
56582;BME280;42463;52.214;21.238;2023-01-25T06:42:47;102254.05;;;2.44;64.17
56582;BME280;42463;52.214;21.238;2023-01-25T06:45:13;102247.72;;;2.41;64.26
56582;BME280;42463;52.214;21.238;2023-01-25T06:47:40;102250.83;;;2.41;64.20
56582;BME280;42463;52.214;21.238;2023-01-25T06:50:13;102254.17;;;2.41;64.15
56582;BME280;42463;52.214;21.238;2023-01-25T06:52:54;102257.73;;;2.38;64.15
56582;BME280;42463;52.214;21.238;2023-01-25T06:55:26;102252.95;;;2.30;63.96
56582;BME280;42463;52.214;21.238;2023-01-25T06:58:13;102240.73;;;2.17;63.86
56582;BME280;42463;52.214;21.238;2023-01-25T07:00:42;102226.98;;;1.98;63.62
56582;BME280;42463;52.214;21.238;2023-01-25T07:03:07;102232.35;;;1.88;64.06
56582;BME280;42463;52.214;21.238;2023-01-25T07:05:31;102227.67;;;1.76;64.60
56582;BME280;42463;52.214;21.238;2023-01-25T07:07:57;102222.79;;;1.75;65.11
56582;BME280;42463;52.214;21.238;2023-01-25T07:10:24;102221.18;;;1.75;65.31
56582;BME280;42463;52.214;21.238;2023-01-25T07:16:53;102217.45;;;1.70;65.02
56582;BME280;42463;52.214;21.238;2023-01-25T07:19:20;102212.91;;;1.71;65.56
56582;BME280;42463;52.214;21.238;2023-01-25T07:21:46;102209.84;;;1.71;65.11
56582;BME280;42463;52.214;21.238;2023-01-25T07:24:14;102211.80;;;1.73;65.28
56582;BME280;42463;52.214;21.238;2023-01-25T07:29:49;102212.45;;;1.75;65.29
56582;BME280;42463;52.214;21.238;2023-01-25T07:32:14;102211.65;;;1.71;65.26
56582;BME280;42463;52.214;21.238;2023-01-25T07:34:41;102214.24;;;1.70;65.50
56582;BME280;42463;52.214;21.238;2023-01-25T07:37:29;102215.52;;;1.78;66.09
56582;BME280;42463;52.214;21.238;2023-01-25T07:40:15;102213.83;;;1.90;66.28
56582;BME280;42463;52.214;21.238;2023-01-25T07:42:45;102217.98;;;1.98;65.61
56582;BME280;42463;52.214;21.238;2023-01-25T07:45:16;102217.22;;;1.99;65.21
56582;BME280;42463;52.214;21.238;2023-01-25T07:47:43;102215.12;;;2.00;65.06
56582;BME280;42463;52.214;21.238;2023-01-25T07:50:10;102214.02;;;1.97;65.29
56582;BME280;42463;52.214;21.238;2023-01-25T07:52:37;102216.27;;;1.97;64.98
56582;BME280;42463;52.214;21.238;2023-01-25T07:55:03;102218.98;;;1.97;65.01
56582;BME280;42463;52.214;21.238;2023-01-25T07:57:31;102214.29;;;2.00;65.34
56582;BME280;42463;52.214;21.238;2023-01-25T07:59:55;102212.93;;;2.06;65.21
56582;BME280;42463;52.214;21.238;2023-01-25T08:02:23;102213.17;;;2.11;65.15
56582;BME280;42463;52.214;21.238;2023-01-25T08:04:48;102211.30;;;2.06;64.55
56582;BME280;42463;52.214;21.238;2023-01-25T08:07:14;102209.64;;;1.96;64.29
56582;BME280;42463;52.214;21.238;2023-01-25T08:09:39;102208.25;;;1.87;64.97
56582;BME280;42463;52.214;21.238;2023-01-25T08:12:05;102209.61;;;1.89;65.10
56582;BME280;42463;52.214;21.238;2023-01-25T08:14:33;102207.44;;;1.93;65.29
56582;BME280;42463;52.214;21.238;2023-01-25T08:16:58;102207.25;;;1.95;65.09
56582;BME280;42463;52.214;21.238;2023-01-25T08:19:24;102207.80;;;1.95;65.13
56582;BME280;42463;52.214;21.238;2023-01-25T08:21:49;102203.33;;;1.93;65.13
56582;BME280;42463;52.214;21.238;2023-01-25T08:24:15;102198.39;;;1.91;65.11
56582;BME280;42463;52.214;21.238;2023-01-25T08:26:43;102200.20;;;1.92;65.18
56582;BME280;42463;52.214;21.238;2023-01-25T08:29:08;102194.80;;;1.91;65.14
56582;BME280;42463;52.214;21.238;2023-01-25T08:31:35;102188.75;;;1.91;65.18
56582;BME280;42463;52.214;21.238;2023-01-25T08:34:05;102189.63;;;2.00;65.45
56582;BME280;42463;52.214;21.238;2023-01-25T08:36:30;102184.58;;;2.07;65.31
56582;BME280;42463;52.214;21.238;2023-01-25T08:38:57;102180.36;;;2.12;64.90
56582;BME280;42463;52.214;21.238;2023-01-25T08:41:23;102176.85;;;2.08;64.22
56582;BME280;42463;52.214;21.238;2023-01-25T08:43:50;102178.70;;;2.02;64.36
56582;BME280;42463;52.214;21.238;2023-01-25T08:46:16;102179.17;;;1.99;64.53
56582;BME280;42463;52.214;21.238;2023-01-25T08:48:41;102176.66;;;1.98;64.85
56582;BME280;42463;52.214;21.238;2023-01-25T08:51:11;102173.39;;;1.98;64.80
56582;BME280;42463;52.214;21.238;2023-01-25T08:53:39;102174.27;;;2.02;65.00
56582;BME280;42463;52.214;21.238;2023-01-25T08:56:07;102170.89;;;2.05;64.88
56582;BME280;42463;52.214;21.238;2023-01-25T08:58:36;102171.23;;;2.00;64.95
56582;BME280;42463;52.214;21.238;2023-01-25T09:01:06;102171.58;;;2.02;65.14
56582;BME280;42463;52.214;21.238;2023-01-25T09:03:37;102170.09;;;2.01;64.50
56582;BME280;42463;52.214;21.238;2023-01-25T09:06:03;102166.55;;;1.97;64.27
56582;BME280;42463;52.214;21.238;2023-01-25T09:08:29;102163.58;;;1.89;64.37
56582;BME280;42463;52.214;21.238;2023-01-25T09:10:54;102157.21;;;1.83;64.25
56582;BME280;42463;52.214;21.238;2023-01-25T09:13:23;102154.14;;;1.84;64.74
56582;BME280;42463;52.214;21.238;2023-01-25T09:15:51;102143.64;;;1.85;64.86
56582;BME280;42463;52.214;21.238;2023-01-25T09:18:25;102154.40;;;1.91;64.57
56582;BME280;42463;52.214;21.238;2023-01-25T09:20:51;102155.80;;;1.90;64.53
56582;BME280;42463;52.214;21.238;2023-01-25T09:23:20;102155.42;;;1.89;64.64
56582;BME280;42463;52.214;21.238;2023-01-25T09:25:46;102151.27;;;1.87;64.42
56582;BME280;42463;52.214;21.238;2023-01-25T09:28:19;102147.56;;;1.82;63.84
56582;BME280;42463;52.214;21.238;2023-01-25T09:30:46;102148.02;;;1.75;64.31
56582;BME280;42463;52.214;21.238;2023-01-25T09:33:25;102146.31;;;1.77;64.74
56582;BME280;42463;52.214;21.238;2023-01-25T09:35:52;102139.69;;;1.80;64.63
56582;BME280;42463;52.214;21.238;2023-01-25T09:38:17;102135.23;;;1.78;64.14
56582;BME280;42463;52.214;21.238;2023-01-25T09:40:48;102132.86;;;1.68;63.60
56582;BME280;42463;52.214;21.238;2023-01-25T09:43:29;102124.30;;;1.59;63.97
56582;BME280;42463;52.214;21.238;2023-01-25T09:46:05;102123.41;;;1.61;64.70
56582;BME280;42463;52.214;21.238;2023-01-25T09:48:37;102116.23;;;1.69;64.87
56582;BME280;42463;52.214;21.238;2023-01-25T09:51:19;102114.14;;;1.68;64.26
56582;BME280;42463;52.214;21.238;2023-01-25T09:53:50;102109.66;;;1.64;63.90
56582;BME280;42463;52.214;21.238;2023-01-25T09:56:31;102109.84;;;1.58;64.34
56582;BME280;42463;52.214;21.238;2023-01-25T09:59:02;102112.48;;;1.57;64.71
56582;BME280;42463;52.214;21.238;2023-01-25T10:01:40;102110.77;;;1.57;64.93
56582;BME280;42463;52.214;21.238;2023-01-25T10:04:18;102107.97;;;1.66;65.02
56582;BME280;42463;52.214;21.238;2023-01-25T10:06:47;102109.96;;;1.69;64.96
56582;BME280;42463;52.214;21.238;2023-01-25T10:09:20;102108.36;;;1.69;64.47
56582;BME280;42463;52.214;21.238;2023-01-25T10:11:48;102103.10;;;1.63;64.45
56582;BME280;42463;52.214;21.238;2023-01-25T10:14:16;102100.44;;;1.61;64.62
56582;BME280;42463;52.214;21.238;2023-01-25T10:17:00;102096.60;;;1.58;64.36
56582;BME280;42463;52.214;21.238;2023-01-25T10:19:34;102089.58;;;1.57;64.64
56582;BME280;42463;52.214;21.238;2023-01-25T10:22:25;102089.84;;;1.69;65.53
56582;BME280;42463;52.214;21.238;2023-01-25T10:25:02;102088.35;;;1.80;64.68
56582;BME280;42463;52.214;21.238;2023-01-25T10:27:38;102080.43;;;1.81;64.44
56582;BME280;42463;52.214;21.238;2023-01-25T10:30:22;102074.96;;;1.83;64.72
56582;BME280;42463;52.214;21.238;2023-01-25T10:32:57;102069.74;;;1.87;64.59
56582;BME280;42463;52.214;21.238;2023-01-25T10:35:30;102064.20;;;1.96;64.68
56582;BME280;42463;52.214;21.238;2023-01-25T10:38:06;102053.68;;;1.98;63.97
56582;BME280;42463;52.214;21.238;2023-01-25T10:40:40;102051.63;;;1.90;63.59
56582;BME280;42463;52.214;21.238;2023-01-25T10:43:14;102050.48;;;1.82;63.87
56582;BME280;42463;52.214;21.238;2023-01-25T10:45:47;102050.98;;;1.88;64.29
56582;BME280;42463;52.214;21.238;2023-01-25T10:48:18;102051.54;;;1.87;64.15
56582;BME280;42463;52.214;21.238;2023-01-25T10:50:50;102045.33;;;1.89;64.24
56582;BME280;42463;52.214;21.238;2023-01-25T10:53:31;102047.76;;;1.93;63.93
56582;BME280;42463;52.214;21.238;2023-01-25T10:56:03;102047.67;;;1.90;63.98
56582;BME280;42463;52.214;21.238;2023-01-25T10:58:35;102048.04;;;1.88;64.29
56582;BME280;42463;52.214;21.238;2023-01-25T11:01:03;102041.89;;;1.91;64.54
56582;BME280;42463;52.214;21.238;2023-01-25T11:03:39;102040.54;;;1.99;64.42
56582;BME280;42463;52.214;21.238;2023-01-25T11:06:08;102034.92;;;1.95;63.49
56582;BME280;42463;52.214;21.238;2023-01-25T11:08:36;102031.00;;;1.88;63.86
56582;BME280;42463;52.214;21.238;2023-01-25T11:11:23;102028.48;;;1.91;64.30
56582;BME280;42463;52.214;21.238;2023-01-25T11:13:50;102022.69;;;2.01;64.16
56582;BME280;42463;52.214;21.238;2023-01-25T11:16:28;102012.46;;;2.05;63.51
56582;BME280;42463;52.214;21.238;2023-01-25T11:18:56;102000.63;;;1.93;62.91
56582;BME280;42463;52.214;21.238;2023-01-25T11:21:25;101999.61;;;1.84;63.35
56582;BME280;42463;52.214;21.238;2023-01-25T11:24:17;102000.54;;;1.77;63.56
56582;BME280;42463;52.214;21.238;2023-01-25T11:26:42;101993.77;;;1.75;63.75
56582;BME280;42463;52.214;21.238;2023-01-25T11:29:13;101992.83;;;1.74;63.69
56582;BME280;42463;52.214;21.238;2023-01-25T11:31:39;101987.25;;;1.71;63.93
56582;BME280;42463;52.214;21.238;2023-01-25T11:34:10;101985.83;;;1.71;64.26
56582;BME280;42463;52.214;21.238;2023-01-25T11:37:08;101974.65;;;1.71;63.88
56582;BME280;42463;52.214;21.238;2023-01-25T11:39:49;101983.50;;;1.80;64.37
56582;BME280;42463;52.214;21.238;2023-01-25T11:42:40;101978.29;;;1.81;64.22
56582;BME280;42463;52.214;21.238;2023-01-25T11:45:56;101980.46;;;1.88;64.65
56582;BME280;42463;52.214;21.238;2023-01-25T11:48:56;101976.32;;;1.96;64.18
56582;BME280;42463;52.214;21.238;2023-01-25T11:51:42;101967.64;;;1.93;63.79
56582;BME280;42463;52.214;21.238;2023-01-25T11:54:40;101964.41;;;1.88;63.95
56582;BME280;42463;52.214;21.238;2023-01-25T11:57:36;101964.20;;;1.85;64.21
56582;BME280;42463;52.214;21.238;2023-01-25T12:00:23;101960.55;;;1.92;64.54
56582;BME280;42463;52.214;21.238;2023-01-25T12:06:02;101948.95;;;1.94;64.21
56582;BME280;42463;52.214;21.238;2023-01-25T12:09:05;101943.95;;;1.91;64.13
56582;BME280;42463;52.214;21.238;2023-01-25T12:11:45;101943.77;;;1.89;64.43
56582;BME280;42463;52.214;21.238;2023-01-25T12:14:28;101940.45;;;1.92;64.75
56582;BME280;42463;52.214;21.238;2023-01-25T12:17:18;101939.63;;;1.98;64.40
56582;BME280;42463;52.214;21.238;2023-01-25T12:22:50;101934.58;;;1.96;64.21
56582;BME280;42463;52.214;21.238;2023-01-25T12:25:31;101929.85;;;1.94;64.06
56582;BME280;42463;52.214;21.238;2023-01-25T12:28:11;101930.06;;;1.90;63.99
56582;BME280;42463;52.214;21.238;2023-01-25T12:30:49;101926.62;;;1.89;64.57
56582;BME280;42463;52.214;21.238;2023-01-25T12:33:28;101919.39;;;1.96;64.58
56582;BME280;42463;52.214;21.238;2023-01-25T12:36:26;101914.02;;;2.02;64.66
56582;BME280;42463;52.214;21.238;2023-01-25T12:39:01;101914.58;;;2.07;64.00
56582;BME280;42463;52.214;21.238;2023-01-25T12:41:31;101911.14;;;2.03;63.83
56582;BME280;42463;52.214;21.238;2023-01-25T12:44:26;101908.09;;;1.98;63.99
56582;BME280;42463;52.214;21.238;2023-01-25T12:46:58;101907.91;;;1.94;64.02
56582;BME280;42463;52.214;21.238;2023-01-25T12:49:40;101906.81;;;1.95;64.19
56582;BME280;42463;52.214;21.238;2023-01-25T12:52:18;101906.62;;;2.00;64.22
56582;BME280;42463;52.214;21.238;2023-01-25T12:54:46;101903.30;;;1.98;64.36
56582;BME280;42463;52.214;21.238;2023-01-25T12:57:20;101903.83;;;2.04;64.34
56582;BME280;42463;52.214;21.238;2023-01-25T12:59:56;101899.21;;;2.06;64.11
56582;BME280;42463;52.214;21.238;2023-01-25T13:02:40;101896.69;;;2.08;64.01
56582;BME280;42463;52.214;21.238;2023-01-25T13:05:20;101894.30;;;2.07;63.95
56582;BME280;42463;52.214;21.238;2023-01-25T13:07:52;101887.89;;;2.07;63.93
56582;BME280;42463;52.214;21.238;2023-01-25T13:10:25;101887.06;;;2.04;64.42
56582;BME280;42463;52.214;21.238;2023-01-25T13:12:57;101879.55;;;2.10;64.27
56582;BME280;42463;52.214;21.238;2023-01-25T13:18:01;101873.33;;;2.06;63.34
56582;BME280;42463;52.214;21.238;2023-01-25T13:20:52;101868.65;;;2.00;64.06
56582;BME280;42463;52.214;21.238;2023-01-25T13:23:36;101865.64;;;2.08;64.56
56582;BME280;42463;52.214;21.238;2023-01-25T13:26:45;101860.22;;;2.13;64.28
56582;BME280;42463;52.214;21.238;2023-01-25T13:38:33;101854.82;;;1.95;63.63